createdAt,value
2018-02-14T00:00:01.792Z,6.53
2018-02-14T00:02:29.478Z,6.53
2018-02-14T00:04:57.139Z,5.90
2018-02-14T00:07:24.909Z,5.97
2018-02-14T00:09:52.607Z,6.37
2018-02-14T00:12:20.266Z,7.10
2018-02-14T00:14:47.993Z,6.57
2018-02-14T00:17:15.653Z,6.30
2018-02-14T00:19:43.371Z,6.07
2018-02-14T00:22:11.084Z,6.65
2018-02-14T00:24:38.780Z,6.20
2018-02-14T00:27:06.445Z,5.90
2018-02-14T00:29:34.168Z,5.33
2018-02-14T00:32:01.893Z,5.20
2018-02-14T00:34:29.553Z,6.23
2018-02-14T00:36:57.210Z,6.17
2018-02-14T00:39:25.023Z,5.87
2018-02-14T00:41:52.678Z,5.40
2018-02-14T00:44:20.346Z,6.10
2018-02-14T00:46:48.845Z,5.60
2018-02-14T00:49:16.516Z,5.30
2018-02-14T00:51:44.270Z,5.00
2018-02-14T00:54:11.933Z,5.20
2018-02-14T00:56:39.600Z,5.10
2018-02-14T00:59:07.328Z,4.53
2018-02-14T01:01:34.992Z,5.23
2018-02-14T01:04:02.660Z,6.73
2018-02-14T01:06:30.386Z,5.07
2018-02-14T01:08:58.129Z,4.97
2018-02-14T01:11:25.854Z,4.77
2018-02-14T01:13:53.627Z,4.50
2018-02-14T01:16:22.171Z,5.23
2018-02-14T01:18:50.054Z,5.03
2018-02-14T01:21:17.827Z,5.37
2018-02-14T01:23:45.598Z,5.20
2018-02-14T01:26:13.382Z,5.67
2018-02-14T01:28:41.104Z,5.40
2018-02-14T01:31:08.874Z,5.60
2018-02-14T01:33:36.703Z,4.80
2018-02-14T01:36:04.442Z,5.87
2018-02-14T01:38:32.209Z,4.90
2018-02-14T01:41:00.011Z,6.27
2018-02-14T01:43:27.779Z,6.80
2018-02-14T01:45:55.534Z,6.63
2018-02-14T01:48:23.335Z,6.40
2018-02-14T01:50:51.058Z,5.90
2018-02-14T01:53:18.788Z,6.10
2018-02-14T01:55:46.564Z,5.73
2018-02-14T01:58:14.303Z,5.70
2018-02-14T02:00:42.116Z,5.97
2018-02-14T02:03:10.645Z,6.00
2018-02-14T02:05:38.369Z,6.73
2018-02-14T02:08:06.907Z,6.97
2018-02-14T02:10:34.628Z,7.00
2018-02-14T02:13:03.140Z,6.50
2018-02-14T02:15:30.886Z,6.60
2018-02-14T02:17:58.698Z,7.10
2018-02-14T02:20:26.503Z,6.63
2018-02-14T02:22:54.985Z,6.47
2018-02-14T02:25:23.514Z,6.50
2018-02-14T02:27:51.288Z,6.20
2018-02-14T02:30:19.055Z,6.80
2018-02-14T02:32:48.001Z,5.47
2018-02-14T02:35:15.739Z,6.33
2018-02-14T02:37:43.514Z,6.13
2018-02-14T02:40:23.086Z,6.37
2018-02-14T02:42:50.800Z,6.00
2018-02-14T02:45:18.514Z,5.37
2018-02-14T02:47:46.302Z,6.20
2018-02-14T02:50:14.010Z,6.70
2018-02-14T02:52:41.779Z,5.10
2018-02-14T02:55:09.518Z,5.90
2018-02-14T02:57:37.250Z,5.77
2018-02-14T03:00:05.023Z,5.47
2018-02-14T03:02:32.731Z,5.13
2018-02-14T03:05:00.498Z,6.23
2018-02-14T03:07:28.258Z,6.10
2018-02-14T03:09:55.961Z,5.80
2018-02-14T03:12:23.670Z,5.63
2018-02-14T03:14:51.398Z,5.33
2018-02-14T03:17:19.901Z,5.13
2018-02-14T03:19:47.670Z,4.97
2018-02-14T03:22:15.447Z,5.57
2018-02-14T03:24:43.209Z,5.80
2018-02-14T03:27:10.973Z,5.80
2018-02-14T03:29:38.684Z,4.90
2018-02-14T03:32:06.403Z,5.60
2018-02-14T03:34:34.128Z,5.23
2018-02-14T03:37:01.842Z,5.40
2018-02-14T03:39:29.545Z,4.57
2018-02-14T03:41:57.254Z,4.90
2018-02-14T03:44:24.982Z,5.23
2018-02-14T03:46:52.716Z,6.30
2018-02-14T03:49:20.514Z,6.23
2018-02-14T03:51:48.317Z,5.90
2018-02-14T03:54:16.089Z,5.50
2018-02-14T03:56:43.852Z,5.27
2018-02-14T03:59:11.610Z,5.50
2018-02-14T04:01:40.096Z,5.33
2018-02-14T04:04:08.634Z,6.20
2018-02-14T04:06:36.424Z,5.27
2018-02-14T04:09:04.191Z,5.40
2018-02-14T04:11:31.957Z,6.67
2018-02-14T04:13:59.674Z,6.17
2018-02-14T04:16:27.434Z,5.30
2018-02-14T04:18:55.174Z,5.47
2018-02-14T04:21:22.934Z,5.67
2018-02-14T04:23:50.660Z,5.50
2018-02-14T04:26:18.408Z,5.47
2018-02-14T04:28:46.222Z,6.37
2018-02-14T04:31:14.012Z,5.47
2018-02-14T04:33:42.673Z,6.23
2018-02-14T04:36:10.409Z,5.77
2018-02-14T04:38:38.182Z,6.13
2018-02-14T04:41:05.981Z,5.90
2018-02-14T04:43:33.706Z,6.23
2018-02-14T04:46:01.861Z,7.07
2018-02-14T04:48:29.630Z,6.77
2018-02-14T04:50:57.393Z,6.23
2018-02-14T04:53:25.183Z,6.80
2018-02-14T04:55:52.965Z,6.00
2018-02-14T04:58:20.750Z,5.90
2018-02-14T05:00:48.530Z,6.23
2018-02-14T05:03:16.233Z,6.47
2018-02-14T05:05:44.007Z,6.37
2018-02-14T05:08:11.725Z,6.50
2018-02-14T05:10:39.476Z,7.27
2018-02-14T05:13:07.194Z,6.10
2018-02-14T05:15:34.929Z,6.17
2018-02-14T05:18:03.429Z,7.43
2018-02-14T05:20:31.205Z,7.53
2018-02-14T05:22:58.973Z,7.30
2018-02-14T05:25:26.682Z,6.70
2018-02-14T05:27:54.484Z,7.10
2018-02-14T05:30:22.245Z,6.83
2018-02-14T05:32:53.013Z,7.13
2018-02-14T05:35:20.752Z,6.23
2018-02-14T05:41:34.728Z,7.13
2018-02-14T05:44:03.321Z,7.00
2018-02-14T05:46:32.186Z,6.20
2018-02-14T05:48:59.990Z,6.83
2018-02-14T05:51:27.802Z,6.70
2018-02-14T05:53:55.596Z,6.00
2018-02-14T05:56:24.143Z,6.40
2018-02-14T05:58:51.938Z,6.53
2018-02-14T06:01:19.780Z,6.60
2018-02-14T06:03:47.497Z,5.80
2018-02-14T06:06:15.272Z,6.63
2018-02-14T06:08:43.055Z,6.73
2018-02-14T06:11:10.773Z,6.57
2018-02-14T06:13:38.494Z,6.80
2018-02-14T06:16:06.382Z,6.33
2018-02-14T06:18:34.142Z,6.77
2018-02-14T06:21:01.870Z,7.47
2018-02-14T06:23:29.646Z,6.57
2018-02-14T06:25:57.421Z,7.17
2018-02-14T06:28:25.173Z,7.90
2018-02-14T06:30:52.990Z,7.77
2018-02-14T06:33:20.768Z,8.57
2018-02-14T06:35:48.563Z,11.57
2018-02-14T06:38:16.345Z,9.20
2018-02-14T06:40:48.094Z,9.10
2018-02-14T06:43:15.916Z,8.87
2018-02-14T06:45:43.695Z,9.27
2018-02-14T06:48:11.410Z,8.77
2018-02-14T06:50:39.130Z,9.70
2018-02-14T06:53:06.886Z,9.10
2018-02-14T06:55:34.646Z,9.20
2018-02-14T06:58:02.470Z,8.90
2018-02-14T07:00:30.215Z,9.23
2018-02-14T07:02:58.695Z,9.70
2018-02-14T07:05:26.502Z,9.67
2018-02-14T07:07:54.289Z,9.60
2018-02-14T07:10:22.031Z,10.63
2018-02-14T07:12:49.832Z,10.10
2018-02-14T07:15:17.570Z,10.80
2018-02-14T07:17:45.346Z,12.10
2018-02-14T07:20:13.150Z,11.47
2018-02-14T07:22:40.861Z,11.30
2018-02-14T07:25:08.648Z,12.07
2018-02-14T07:27:36.367Z,12.20
2018-02-14T07:30:04.212Z,12.60
2018-02-14T07:32:32.011Z,13.87
2018-02-14T07:34:59.727Z,13.03
2018-02-14T07:37:27.511Z,15.23
2018-02-14T07:39:55.341Z,12.67
2018-02-14T07:42:23.129Z,13.10
2018-02-14T07:44:50.902Z,13.63
2018-02-14T07:47:18.680Z,14.53
2018-02-14T07:49:46.412Z,16.30
2018-02-14T07:52:14.238Z,13.80
2018-02-14T07:54:42.782Z,14.53
2018-02-14T07:57:10.544Z,15.47
2018-02-14T07:59:38.286Z,15.73
2018-02-14T08:02:06.020Z,14.10
2018-02-14T08:04:33.747Z,15.40
2018-02-14T08:07:01.487Z,14.13
2018-02-14T08:09:29.206Z,12.60
2018-02-14T08:11:57.710Z,13.80
2018-02-14T08:14:25.554Z,12.80
2018-02-14T08:16:53.350Z,12.43
2018-02-14T08:19:21.136Z,10.27
2018-02-14T08:21:48.854Z,10.93
2018-02-14T08:24:16.644Z,11.77
2018-02-14T08:26:44.462Z,12.20
2018-02-14T08:29:12.199Z,12.67
2018-02-14T08:31:41.275Z,10.70
2018-02-14T08:34:09.767Z,13.43
2018-02-14T08:36:37.569Z,12.57
2018-02-14T08:39:05.432Z,12.93
2018-02-14T08:41:33.226Z,13.07
2018-02-14T08:44:00.961Z,13.07
2018-02-14T08:46:28.751Z,12.20
2018-02-14T08:48:58.402Z,13.77
2018-02-14T08:51:27.544Z,13.70
2018-02-14T08:53:55.262Z,13.90
2018-02-14T08:56:23.014Z,13.67
2018-02-14T08:58:55.599Z,14.17
2018-02-14T09:01:23.452Z,13.57
2018-02-14T09:03:56.250Z,13.40
2018-02-14T09:06:27.020Z,14.00
2018-02-14T09:08:55.614Z,13.10
2018-02-14T09:11:23.393Z,13.80
2018-02-14T09:13:53.417Z,13.70
2018-02-14T09:16:21.141Z,13.90
2018-02-14T09:18:50.130Z,14.93
2018-02-14T09:21:22.426Z,14.20
2018-02-14T09:23:50.180Z,13.73
2018-02-14T09:26:19.631Z,15.40
2018-02-14T09:28:50.030Z,14.83
2018-02-14T09:31:18.587Z,15.03
2018-02-14T09:33:46.374Z,15.83
2018-02-14T09:36:14.104Z,15.93
2018-02-14T09:38:41.878Z,19.13
2018-02-14T09:41:09.596Z,17.77
2018-02-14T09:43:38.689Z,15.50
2018-02-14T09:46:06.503Z,16.60
2018-02-14T09:48:34.351Z,16.57
2018-02-14T09:51:02.139Z,18.60
2018-02-14T09:53:31.342Z,15.50
2018-02-14T09:55:59.132Z,17.43
2018-02-14T09:58:26.938Z,15.63
2018-02-14T10:00:55.265Z,17.50
2018-02-14T10:03:23.807Z,18.07
2018-02-14T10:05:52.392Z,15.87
2018-02-14T10:08:20.105Z,15.33
2018-02-14T10:10:48.665Z,15.37
2018-02-14T10:13:16.404Z,16.17
2018-02-14T10:15:44.188Z,16.23
2018-02-14T10:18:11.991Z,17.90
2018-02-14T10:20:39.720Z,16.17
2018-02-14T10:23:07.494Z,17.80
2018-02-14T10:25:35.290Z,16.03
2018-02-14T10:28:03.032Z,18.57
2018-02-14T10:30:30.821Z,18.50
2018-02-14T10:32:59.319Z,16.27
2018-02-14T10:35:27.872Z,16.90
2018-02-14T10:38:03.505Z,16.70
2018-02-14T10:40:32.107Z,15.93
2018-02-14T10:42:59.828Z,17.43
2018-02-14T10:45:27.573Z,16.80
2018-02-14T10:47:55.294Z,16.77
2018-02-14T10:50:23.791Z,16.60
2018-02-14T10:52:51.541Z,17.20
2018-02-14T10:55:19.288Z,16.07
2018-02-14T10:57:47.131Z,15.23
2018-02-14T11:13:37.750Z,10.03
2018-02-14T11:16:05.536Z,11.57
2018-02-14T11:18:33.278Z,11.30
2018-02-14T11:21:01.000Z,11.13
2018-02-14T11:23:28.711Z,8.97
2018-02-14T11:25:56.495Z,10.93
2018-02-14T11:28:24.265Z,10.43
2018-02-14T11:30:52.017Z,10.90
2018-02-14T11:33:19.861Z,10.00
2018-02-14T11:35:47.652Z,9.80
2018-02-14T11:38:15.488Z,10.17
2018-02-14T11:40:43.202Z,11.00
2018-02-14T11:43:11.023Z,10.17
2018-02-14T11:45:38.766Z,9.03
2018-02-14T11:48:06.494Z,8.90
2018-02-14T11:50:34.327Z,9.20
2018-02-14T11:53:02.110Z,9.27
2018-02-14T11:55:29.919Z,8.67
2018-02-14T11:57:57.748Z,8.47
2018-02-14T12:00:25.523Z,9.37
2018-02-14T12:02:53.340Z,9.13
2018-02-14T12:05:21.167Z,11.30
2018-02-14T12:07:48.953Z,10.47
2018-02-14T12:10:16.665Z,9.30
2018-02-14T12:12:44.430Z,9.53
2018-02-14T12:15:12.189Z,9.33
2018-02-14T12:17:39.912Z,8.77
2018-02-14T12:20:07.660Z,9.57
2018-02-14T12:22:35.390Z,8.70
2018-02-14T12:25:06.022Z,8.80
2018-02-14T12:27:33.799Z,7.70
2018-02-14T12:30:01.590Z,10.00
2018-02-14T12:32:29.792Z,9.03
2018-02-14T12:34:57.502Z,7.80
2018-02-14T12:37:26.129Z,8.43
2018-02-14T12:42:41.487Z,7.97
2018-02-14T12:45:09.275Z,8.47
2018-02-14T12:47:37.204Z,8.90
2018-02-14T12:50:04.987Z,8.43
2018-02-14T12:52:56.995Z,6.40
2018-02-14T12:55:31.072Z,7.77
2018-02-14T12:57:59.744Z,7.30
2018-02-14T13:00:27.552Z,7.13
2018-02-14T13:02:55.417Z,8.30
2018-02-14T13:05:23.202Z,7.60
2018-02-14T13:07:51.032Z,7.47
2018-02-14T13:10:18.859Z,8.47
2018-02-14T13:12:46.596Z,7.30
2018-02-14T13:15:14.393Z,6.90
2018-02-14T13:17:42.133Z,7.10
2018-02-14T13:20:10.396Z,6.60
2018-02-14T13:22:38.132Z,6.80
2018-02-14T13:25:05.986Z,7.60
2018-02-14T13:27:33.704Z,8.00
2018-02-14T13:30:01.431Z,6.60
2018-02-14T13:32:29.206Z,7.00
2018-02-14T13:34:57.032Z,5.40
2018-02-14T13:37:25.564Z,5.67
2018-02-14T13:39:53.307Z,7.03
2018-02-14T13:42:21.059Z,6.73
2018-02-14T13:44:48.778Z,6.87
2018-02-14T13:47:16.513Z,6.63
2018-02-14T13:49:44.317Z,6.73
2018-02-14T13:52:12.121Z,7.10
2018-02-14T13:54:40.922Z,7.10
2018-02-14T13:57:08.640Z,6.90
2018-02-14T13:59:36.474Z,6.30
2018-02-14T14:02:13.644Z,6.27
2018-02-14T14:04:41.420Z,4.87
2018-02-14T14:07:09.211Z,5.20
2018-02-14T14:09:37.710Z,5.97
2018-02-14T14:12:05.464Z,6.43
2018-02-14T14:14:33.185Z,6.53
2018-02-14T14:17:00.929Z,5.60
2018-02-14T14:19:28.869Z,4.90
2018-02-14T14:21:56.663Z,4.80
2018-02-14T14:24:24.394Z,4.77
2018-02-14T14:26:52.300Z,4.70
2018-02-14T14:29:20.100Z,5.93
2018-02-14T14:31:49.876Z,5.80
2018-02-14T14:34:17.643Z,5.70
2018-02-14T14:36:45.370Z,5.80
2018-02-14T14:39:13.136Z,4.63
2018-02-14T14:41:41.439Z,6.57
2018-02-14T14:44:09.295Z,5.70
2018-02-14T14:46:37.987Z,5.30
2018-02-14T14:49:05.714Z,5.37
2018-02-14T14:51:34.328Z,6.03
2018-02-14T14:54:02.720Z,5.63
2018-02-14T14:56:30.547Z,5.07
2018-02-14T14:58:59.079Z,5.40
2018-02-14T15:01:26.845Z,5.00
2018-02-14T15:03:55.385Z,4.90
2018-02-14T15:06:24.003Z,5.60
2018-02-14T15:08:51.834Z,5.00
2018-02-14T15:11:20.793Z,5.90
2018-02-14T15:13:49.336Z,5.57
2018-02-14T15:16:17.050Z,5.50
2018-02-14T15:18:44.818Z,4.73
2018-02-14T15:21:12.563Z,4.33
2018-02-14T15:23:45.297Z,4.67
2018-02-14T15:26:18.310Z,5.53
2018-02-14T15:28:46.215Z,5.50
2018-02-14T15:31:14.301Z,5.30
2018-02-14T15:33:45.922Z,5.20
2018-02-14T15:36:14.814Z,6.60
2018-02-14T15:38:44.604Z,6.07
2018-02-14T15:44:20.416Z,5.67
2018-02-14T15:46:48.397Z,5.97
2018-02-14T15:49:16.122Z,6.10
2018-02-14T15:51:43.847Z,6.07
2018-02-14T15:54:11.568Z,7.03
2018-02-14T15:56:39.303Z,5.87
2018-02-14T15:59:10.410Z,6.63
2018-02-14T16:01:38.192Z,7.10
2018-02-14T16:04:05.964Z,6.90
2018-02-14T16:06:33.678Z,7.07
2018-02-14T16:09:04.921Z,6.07
2018-02-14T16:11:33.098Z,6.37
2018-02-14T16:14:00.826Z,7.50
2018-02-14T16:16:28.572Z,6.70
2018-02-14T16:18:57.315Z,6.80
2018-02-14T16:21:25.116Z,7.70
2018-02-14T16:23:52.986Z,6.30
2018-02-14T16:26:20.745Z,6.10
2018-02-14T16:28:51.402Z,7.20
2018-02-14T16:31:19.139Z,6.83
2018-02-14T16:33:47.004Z,8.67
2018-02-14T16:36:14.775Z,8.83
2018-02-14T16:38:42.535Z,8.03
2018-02-14T16:41:10.359Z,7.87
2018-02-14T16:43:38.154Z,8.73
2018-02-14T16:46:05.927Z,9.13
2018-02-14T16:48:33.724Z,9.87
2018-02-14T16:51:02.872Z,9.70
2018-02-14T16:53:30.679Z,9.00
2018-02-14T16:55:58.470Z,9.67
2018-02-14T16:58:26.268Z,10.07
2018-02-14T17:00:54.122Z,9.23
2018-02-14T17:03:21.895Z,8.70
2018-02-14T17:05:49.701Z,9.03
2018-02-14T17:08:17.456Z,8.80
2018-02-14T17:10:45.296Z,8.90
2018-02-14T17:13:15.259Z,8.27
2018-02-14T17:15:52.019Z,10.00
2018-02-14T17:18:32.258Z,8.27
2018-02-14T17:21:00.286Z,9.10
2018-02-14T17:23:28.100Z,11.77
2018-02-14T17:25:57.571Z,11.93
2018-02-14T17:28:27.210Z,10.70
2018-02-14T17:30:56.184Z,12.30
2018-02-14T17:36:14.612Z,13.80
2018-02-14T17:38:43.309Z,14.73
2018-02-14T17:41:14.478Z,14.00
2018-02-14T17:44:04.973Z,13.20
2018-02-14T17:46:35.600Z,12.37
2018-02-14T17:49:03.360Z,12.93
2018-02-14T17:51:33.623Z,11.33
2018-02-14T17:54:01.446Z,9.97
2018-02-14T17:56:31.215Z,11.30
2018-02-14T17:58:58.964Z,10.67
2018-02-14T18:01:39.328Z,12.43
2018-02-14T18:06:43.892Z,11.80
2018-02-14T18:09:13.636Z,11.90
2018-02-14T18:11:41.507Z,11.77
2018-02-14T18:14:09.429Z,12.63
2018-02-14T18:16:37.381Z,12.00
2018-02-14T18:19:06.466Z,13.20
2018-02-14T18:21:34.410Z,11.30
2018-02-14T18:24:05.699Z,13.77
2018-02-14T18:26:33.680Z,12.23
2018-02-14T18:29:02.078Z,12.63
2018-02-14T18:31:30.066Z,13.77
2018-02-14T18:33:58.682Z,12.97
2018-02-14T18:36:26.765Z,12.27
2018-02-14T18:38:54.913Z,12.60
2018-02-14T18:41:22.705Z,16.30
2018-02-14T18:43:50.473Z,15.00
2018-02-14T18:46:23.245Z,15.40
2018-02-14T19:07:36.847Z,13.70
2018-02-14T19:10:07.868Z,13.10
2018-02-14T19:12:39.608Z,13.03
2018-02-14T19:15:08.544Z,12.07
2018-02-14T19:17:36.351Z,11.10
2018-02-14T19:20:04.134Z,11.60
2018-02-14T19:22:31.937Z,11.03
2018-02-14T19:25:00.303Z,11.20
2018-02-14T19:27:28.063Z,10.80
2018-02-14T19:29:55.892Z,9.77
2018-02-14T19:32:27.377Z,10.63
2018-02-14T19:34:55.920Z,10.30
2018-02-14T19:37:23.900Z,10.67
2018-02-14T19:39:51.665Z,9.83
2018-02-14T19:42:22.542Z,10.30
2018-02-14T19:44:50.311Z,11.27
2018-02-14T19:47:18.063Z,11.20
2018-02-14T19:49:47.541Z,10.70
2018-02-14T19:52:16.078Z,9.43
2018-02-14T19:57:16.168Z,9.63
2018-02-14T19:59:45.312Z,11.40
2018-02-14T20:02:19.699Z,10.70
2018-02-14T20:04:47.772Z,9.50
2018-02-14T20:07:15.836Z,9.80
2018-02-14T20:09:44.218Z,9.60
2018-02-14T20:12:24.278Z,9.33
2018-02-14T20:14:53.713Z,9.63
2018-02-14T20:17:23.475Z,8.93
2018-02-14T20:20:24.165Z,9.20
2018-02-14T20:22:52.591Z,8.43
2018-02-14T20:25:21.620Z,8.10
2018-02-14T20:27:50.576Z,8.93
2018-02-14T20:30:20.637Z,10.50
2018-02-14T20:32:51.680Z,9.00
2018-02-14T20:35:20.245Z,9.20
2018-02-14T20:37:48.094Z,9.20
2018-02-14T20:40:16.141Z,9.27
2018-02-14T20:42:45.094Z,9.70
2018-02-14T20:45:19.762Z,8.60
2018-02-14T20:47:49.924Z,8.90
2018-02-14T20:50:27.749Z,9.80
2018-02-14T20:52:57.503Z,8.57
2018-02-14T20:55:28.813Z,8.47
2018-02-14T20:57:58.246Z,8.80
2018-02-14T21:00:30.141Z,7.70
2018-02-14T21:03:07.826Z,8.87
2018-02-14T21:05:40.047Z,11.03
2018-02-14T21:08:12.652Z,9.20
2018-02-14T21:10:53.140Z,9.07
2018-02-14T21:13:20.941Z,9.23
2018-02-14T21:15:48.730Z,9.33
2018-02-14T21:18:28.410Z,9.43
2018-02-14T21:20:57.691Z,9.40
2018-02-14T21:23:25.558Z,9.70
2018-02-14T21:25:55.360Z,8.97
2018-02-14T21:28:23.249Z,9.60
2018-02-14T21:30:51.193Z,9.00
2018-02-14T21:33:19.004Z,9.90
2018-02-14T21:35:46.776Z,9.77
2018-02-14T21:38:14.566Z,10.20
2018-02-14T21:40:42.270Z,8.80
2018-02-14T21:43:14.472Z,9.93
2018-02-14T21:45:42.807Z,9.43
2018-02-14T21:48:10.732Z,8.90
2018-02-14T21:50:38.510Z,8.80
2018-02-14T21:53:06.339Z,9.67
2018-02-14T21:55:34.123Z,9.77
2018-02-14T21:58:01.913Z,8.73
2018-02-14T22:00:29.695Z,8.93
2018-02-14T22:02:58.312Z,9.77
2018-02-14T22:05:26.087Z,9.33
2018-02-14T22:07:53.812Z,9.43
2018-02-14T22:10:21.608Z,9.30
2018-02-14T22:12:50.311Z,8.67
2018-02-14T22:15:18.031Z,9.73
2018-02-14T22:17:45.807Z,9.07
2018-02-14T22:20:13.629Z,8.70
2018-02-14T22:22:42.164Z,8.97
2018-02-14T22:25:09.960Z,8.83
2018-02-14T22:27:37.710Z,9.30
2018-02-14T22:30:05.431Z,9.07
2018-02-14T22:32:33.243Z,10.00
2018-02-14T22:35:02.972Z,9.03
2018-02-14T22:37:30.969Z,9.50
2018-02-14T22:39:58.777Z,9.20
2018-02-14T22:42:26.587Z,9.63
2018-02-14T22:44:54.404Z,9.13
2018-02-14T22:47:22.980Z,9.27
2018-02-14T22:49:51.552Z,9.60
2018-02-14T22:52:19.282Z,9.60
2018-02-14T22:54:47.029Z,9.67
2018-02-14T22:57:14.864Z,10.47
2018-02-14T22:59:42.638Z,10.40
2018-02-14T23:02:10.360Z,9.23
2018-02-14T23:04:38.127Z,10.00
2018-02-14T23:07:06.628Z,10.10
2018-02-14T23:09:35.222Z,9.63
2018-02-14T23:12:03.000Z,9.13
2018-02-14T23:14:30.745Z,9.87
2018-02-14T23:16:58.513Z,9.00
2018-02-14T23:19:26.310Z,9.17
2018-02-14T23:21:54.102Z,9.70
2018-02-14T23:24:21.828Z,9.77
2018-02-14T23:26:49.594Z,9.37
2018-02-14T23:29:17.416Z,10.60
2018-02-14T23:31:45.185Z,9.77
2018-02-14T23:34:12.987Z,9.40
2018-02-14T23:36:40.706Z,9.50
2018-02-14T23:39:08.488Z,9.47
2018-02-14T23:41:36.202Z,9.70
2018-02-14T23:44:03.928Z,9.67
2018-02-14T23:46:31.709Z,10.53
2018-02-14T23:48:59.434Z,10.40
2018-02-14T23:51:27.157Z,9.03
2018-02-14T23:53:54.941Z,10.57
2018-02-14T23:56:22.668Z,10.73
2018-02-14T23:58:50.404Z,10.43
